sensor_id;sensor_type;location;lat;lon;timestamp;P1;durP1;ratioP1;P2;durP2;ratioP2
5977;SDS011;3015;51.390;12.256;2023-03-11T00:00:43;3.60;;;3.40;;
5977;SDS011;3015;51.390;12.256;2023-03-11T00:03:11;4.15;;;3.85;;
5977;SDS011;3015;51.390;12.256;2023-03-11T00:05:39;9.27;;;2.90;;
5977;SDS011;3015;51.390;12.256;2023-03-11T00:08:06;3.67;;;3.38;;
5977;SDS011;3015;51.390;12.256;2023-03-11T00:10:35;3.00;;;2.80;;
5977;SDS011;3015;51.390;12.256;2023-03-11T00:13:05;3.50;;;3.25;;
5977;SDS011;3015;51.390;12.256;2023-03-11T00:15:33;4.10;;;3.80;;
5977;SDS011;3015;51.390;12.256;2023-03-11T00:17:59;3.10;;;2.90;;
5977;SDS011;3015;51.390;12.256;2023-03-11T00:22:54;4.60;;;4.20;;
5977;SDS011;3015;51.390;12.256;2023-03-11T00:25:21;6.33;;;5.73;;
5977;SDS011;3015;51.390;12.256;2023-03-11T00:27:48;4.15;;;3.85;;
5977;SDS011;3015;51.390;12.256;2023-03-11T00:30:19;2.88;;;2.53;;
5977;SDS011;3015;51.390;12.256;2023-03-11T00:32:46;5.35;;;4.95;;
5977;SDS011;3015;51.390;12.256;2023-03-11T00:35:14;5.15;;;4.65;;
5977;SDS011;3015;51.390;12.256;2023-03-11T00:37:42;4.80;;;4.40;;
5977;SDS011;3015;51.390;12.256;2023-03-11T00:40:13;5.75;;;5.32;;
5977;SDS011;3015;51.390;12.256;2023-03-11T00:42:40;5.72;;;5.00;;
5977;SDS011;3015;51.390;12.256;2023-03-11T00:45:06;5.03;;;4.63;;
5977;SDS011;3015;51.390;12.256;2023-03-11T00:47:32;6.03;;;5.43;;
5977;SDS011;3015;51.390;12.256;2023-03-11T00:49:58;5.50;;;5.00;;
5977;SDS011;3015;51.390;12.256;2023-03-11T00:52:23;5.40;;;4.97;;
5977;SDS011;3015;51.390;12.256;2023-03-11T00:54:49;7.73;;;6.30;;
5977;SDS011;3015;51.390;12.256;2023-03-11T00:57:15;7.97;;;7.20;;
5977;SDS011;3015;51.390;12.256;2023-03-11T00:59:40;8.00;;;7.20;;
5977;SDS011;3015;51.390;12.256;2023-03-11T01:02:06;7.27;;;6.63;;
5977;SDS011;3015;51.390;12.256;2023-03-11T01:04:31;7.10;;;4.80;;
5977;SDS011;3015;51.390;12.256;2023-03-11T01:06:57;8.10;;;7.30;;
5977;SDS011;3015;51.390;12.256;2023-03-11T01:09:23;7.03;;;6.33;;
5977;SDS011;3015;51.390;12.256;2023-03-11T01:11:48;5.87;;;5.33;;
5977;SDS011;3015;51.390;12.256;2023-03-11T01:14:14;7.93;;;6.60;;
5977;SDS011;3015;51.390;12.256;2023-03-11T01:16:40;7.23;;;6.40;;
5977;SDS011;3015;51.390;12.256;2023-03-11T01:19:05;7.83;;;6.73;;
5977;SDS011;3015;51.390;12.256;2023-03-11T01:21:31;7.93;;;7.07;;
5977;SDS011;3015;51.390;12.256;2023-03-11T01:23:56;12.20;;;8.83;;
5977;SDS011;3015;51.390;12.256;2023-03-11T01:26:22;7.93;;;7.10;;
5977;SDS011;3015;51.390;12.256;2023-03-11T01:28:48;7.97;;;7.27;;
5977;SDS011;3015;51.390;12.256;2023-03-11T01:31:13;8.23;;;6.97;;
5977;SDS011;3015;51.390;12.256;2023-03-11T01:33:39;7.87;;;7.17;;
5977;SDS011;3015;51.390;12.256;2023-03-11T01:36:04;8.87;;;7.27;;
5977;SDS011;3015;51.390;12.256;2023-03-11T01:38:30;7.85;;;7.05;;
5977;SDS011;3015;51.390;12.256;2023-03-11T01:40:56;6.03;;;5.53;;
5977;SDS011;3015;51.390;12.256;2023-03-11T01:46:24;6.80;;;6.18;;
5977;SDS011;3015;51.390;12.256;2023-03-11T01:48:54;6.03;;;5.53;;
5977;SDS011;3015;51.390;12.256;2023-03-11T01:51:37;6.57;;;5.97;;
5977;SDS011;3015;51.390;12.256;2023-03-11T01:54:06;9.48;;;6.78;;
5977;SDS011;3015;51.390;12.256;2023-03-11T01:56:42;8.07;;;6.97;;
5977;SDS011;3015;51.390;12.256;2023-03-11T01:59:10;8.45;;;7.35;;
5977;SDS011;3015;51.390;12.256;2023-03-11T02:04:37;10.25;;;8.55;;
5977;SDS011;3015;51.390;12.256;2023-03-11T02:07:04;8.40;;;7.40;;
5977;SDS011;3015;51.390;12.256;2023-03-11T02:09:32;7.95;;;7.10;;
5977;SDS011;3015;51.390;12.256;2023-03-11T02:11:57;12.10;;;9.40;;
5977;SDS011;3015;51.390;12.256;2023-03-11T02:14:23;11.07;;;8.37;;
5977;SDS011;3015;51.390;12.256;2023-03-11T02:16:51;5.68;;;5.15;;
5977;SDS011;3015;51.390;12.256;2023-03-11T02:22:10;8.70;;;7.75;;
5977;SDS011;3015;51.390;12.256;2023-03-11T02:25:00;10.18;;;8.85;;
5977;SDS011;3015;51.390;12.256;2023-03-11T02:27:23;6.70;;;6.10;;
5977;SDS011;3015;51.390;12.256;2023-03-11T02:29:50;6.70;;;6.10;;
5977;SDS011;3015;51.390;12.256;2023-03-11T02:32:18;8.90;;;8.05;;
5977;SDS011;3015;51.390;12.256;2023-03-11T02:34:44;9.68;;;8.75;;
5977;SDS011;3015;51.390;12.256;2023-03-11T02:37:11;9.77;;;8.77;;
5977;SDS011;3015;51.390;12.256;2023-03-11T02:39:40;10.98;;;8.70;;
5977;SDS011;3015;51.390;12.256;2023-03-11T02:42:09;8.45;;;7.68;;
5977;SDS011;3015;51.390;12.256;2023-03-11T02:44:43;8.00;;;6.70;;
5977;SDS011;3015;51.390;12.256;2023-03-11T02:47:13;9.75;;;8.52;;
5977;SDS011;3015;51.390;12.256;2023-03-11T02:49:39;9.05;;;7.05;;
5977;SDS011;3015;51.390;12.256;2023-03-11T02:52:05;11.13;;;8.37;;
5977;SDS011;3015;51.390;12.256;2023-03-11T02:54:30;8.07;;;5.37;;
5977;SDS011;3015;51.390;12.256;2023-03-11T02:56:56;8.40;;;6.97;;
5977;SDS011;3015;51.390;12.256;2023-03-11T02:59:22;13.83;;;9.23;;
5977;SDS011;3015;51.390;12.256;2023-03-11T03:01:47;9.97;;;9.03;;
5977;SDS011;3015;51.390;12.256;2023-03-11T03:04:13;11.60;;;8.30;;
5977;SDS011;3015;51.390;12.256;2023-03-11T03:06:39;7.97;;;6.77;;
5977;SDS011;3015;51.390;12.256;2023-03-11T03:09:04;11.57;;;8.63;;
5977;SDS011;3015;51.390;12.256;2023-03-11T03:11:30;12.63;;;9.73;;
5977;SDS011;3015;51.390;12.256;2023-03-11T03:13:56;10.47;;;9.33;;
5977;SDS011;3015;51.390;12.256;2023-03-11T03:16:21;10.60;;;8.13;;
5977;SDS011;3015;51.390;12.256;2023-03-11T03:18:47;14.27;;;8.93;;
5977;SDS011;3015;51.390;12.256;2023-03-11T03:21:12;8.03;;;6.67;;
5977;SDS011;3015;51.390;12.256;2023-03-11T03:23:38;9.70;;;8.27;;
5977;SDS011;3015;51.390;12.256;2023-03-11T03:26:04;10.13;;;8.80;;
5977;SDS011;3015;51.390;12.256;2023-03-11T03:28:30;10.57;;;8.73;;
5977;SDS011;3015;51.390;12.256;2023-03-11T03:30:56;11.43;;;8.07;;
5977;SDS011;3015;51.390;12.256;2023-03-11T03:33:27;10.98;;;7.47;;
5977;SDS011;3015;51.390;12.256;2023-03-11T03:35:53;10.67;;;7.80;;
5977;SDS011;3015;51.390;12.256;2023-03-11T03:38:19;7.50;;;6.70;;
5977;SDS011;3015;51.390;12.256;2023-03-11T03:40:45;10.40;;;8.47;;
5977;SDS011;3015;51.390;12.256;2023-03-11T03:43:11;11.18;;;9.30;;
5977;SDS011;3015;51.390;12.256;2023-03-11T03:45:37;12.20;;;9.37;;
5977;SDS011;3015;51.390;12.256;2023-03-11T03:48:03;15.37;;;10.50;;
5977;SDS011;3015;51.390;12.256;2023-03-11T03:50:29;11.43;;;9.23;;
5977;SDS011;3015;51.390;12.256;2023-03-11T03:52:54;12.30;;;9.93;;
5977;SDS011;3015;51.390;12.256;2023-03-11T03:55:20;14.17;;;10.73;;
5977;SDS011;3015;51.390;12.256;2023-03-11T03:57:45;11.67;;;10.30;;
5977;SDS011;3015;51.390;12.256;2023-03-11T04:00:11;14.40;;;10.37;;
5977;SDS011;3015;51.390;12.256;2023-03-11T04:02:37;7.90;;;6.72;;
5977;SDS011;3015;51.390;12.256;2023-03-11T04:05:03;12.67;;;9.20;;
5977;SDS011;3015;51.390;12.256;2023-03-11T04:07:29;12.80;;;10.40;;
5977;SDS011;3015;51.390;12.256;2023-03-11T04:09:54;12.20;;;7.50;;
5977;SDS011;3015;51.390;12.256;2023-03-11T04:12:20;6.37;;;5.67;;
5977;SDS011;3015;51.390;12.256;2023-03-11T04:14:46;9.33;;;7.17;;
5977;SDS011;3015;51.390;12.256;2023-03-11T04:17:12;8.70;;;7.80;;
5977;SDS011;3015;51.390;12.256;2023-03-11T04:19:38;16.07;;;11.10;;
5977;SDS011;3015;51.390;12.256;2023-03-11T04:22:04;11.75;;;9.27;;
5977;SDS011;3015;51.390;12.256;2023-03-11T04:24:30;12.60;;;9.37;;
5977;SDS011;3015;51.390;12.256;2023-03-11T04:26:56;9.73;;;8.53;;
5977;SDS011;3015;51.390;12.256;2023-03-11T04:29:21;12.37;;;8.77;;
5977;SDS011;3015;51.390;12.256;2023-03-11T04:31:47;10.57;;;7.10;;
5977;SDS011;3015;51.390;12.256;2023-03-11T04:34:13;8.13;;;7.33;;
5977;SDS011;3015;51.390;12.256;2023-03-11T04:36:38;11.77;;;7.97;;
5977;SDS011;3015;51.390;12.256;2023-03-11T04:39:04;8.00;;;6.93;;
5977;SDS011;3015;51.390;12.256;2023-03-11T04:41:30;8.60;;;7.03;;
5977;SDS011;3015;51.390;12.256;2023-03-11T04:43:55;10.23;;;7.40;;
5977;SDS011;3015;51.390;12.256;2023-03-11T04:46:22;12.43;;;9.20;;
5977;SDS011;3015;51.390;12.256;2023-03-11T04:48:48;11.03;;;8.90;;
5977;SDS011;3015;51.390;12.256;2023-03-11T04:51:13;10.63;;;9.63;;
5977;SDS011;3015;51.390;12.256;2023-03-11T04:53:39;12.63;;;9.40;;
5977;SDS011;3015;51.390;12.256;2023-03-11T04:56:05;16.63;;;9.40;;
5977;SDS011;3015;51.390;12.256;2023-03-11T04:58:30;7.93;;;6.67;;
5977;SDS011;3015;51.390;12.256;2023-03-11T05:00:56;10.37;;;6.77;;
5977;SDS011;3015;51.390;12.256;2023-03-11T05:03:22;14.60;;;9.73;;
5977;SDS011;3015;51.390;12.256;2023-03-11T05:05:48;12.27;;;10.23;;
5977;SDS011;3015;51.390;12.256;2023-03-11T05:08:14;13.70;;;10.80;;
5977;SDS011;3015;51.390;12.256;2023-03-11T05:10:39;9.30;;;7.77;;
5977;SDS011;3015;51.390;12.256;2023-03-11T05:13:06;14.27;;;9.20;;
5977;SDS011;3015;51.390;12.256;2023-03-11T05:15:32;9.13;;;7.43;;
5977;SDS011;3015;51.390;12.256;2023-03-11T05:17:58;11.37;;;9.40;;
5977;SDS011;3015;51.390;12.256;2023-03-11T05:20:24;8.73;;;7.80;;
5977;SDS011;3015;51.390;12.256;2023-03-11T05:22:49;15.03;;;8.83;;
5977;SDS011;3015;51.390;12.256;2023-03-11T05:25:15;14.73;;;10.70;;
5977;SDS011;3015;51.390;12.256;2023-03-11T05:27:41;11.07;;;9.07;;
5977;SDS011;3015;51.390;12.256;2023-03-11T05:30:07;16.90;;;11.07;;
5977;SDS011;3015;51.390;12.256;2023-03-11T05:32:33;12.32;;;8.68;;
5977;SDS011;3015;51.390;12.256;2023-03-11T05:34:58;13.60;;;9.67;;
5977;SDS011;3015;51.390;12.256;2023-03-11T05:37:25;12.23;;;8.80;;
5977;SDS011;3015;51.390;12.256;2023-03-11T05:39:51;14.27;;;10.05;;
5977;SDS011;3015;51.390;12.256;2023-03-11T05:42:17;9.43;;;8.27;;
5977;SDS011;3015;51.390;12.256;2023-03-11T05:44:43;9.90;;;7.37;;
5977;SDS011;3015;51.390;12.256;2023-03-11T05:47:08;12.50;;;9.40;;
5977;SDS011;3015;51.390;12.256;2023-03-11T05:49:34;12.80;;;9.07;;
5977;SDS011;3015;51.390;12.256;2023-03-11T05:52:00;13.20;;;9.27;;
5977;SDS011;3015;51.390;12.256;2023-03-11T05:54:26;11.30;;;8.73;;
5977;SDS011;3015;51.390;12.256;2023-03-11T05:56:51;10.47;;;8.60;;
5977;SDS011;3015;51.390;12.256;2023-03-11T05:59:17;10.00;;;7.80;;
5977;SDS011;3015;51.390;12.256;2023-03-11T06:01:43;10.37;;;7.03;;
5977;SDS011;3015;51.390;12.256;2023-03-11T06:04:09;12.90;;;7.83;;
5977;SDS011;3015;51.390;12.256;2023-03-11T06:06:35;7.05;;;6.03;;
5977;SDS011;3015;51.390;12.256;2023-03-11T06:09:02;8.43;;;7.63;;
5977;SDS011;3015;51.390;12.256;2023-03-11T06:11:28;8.63;;;7.00;;
5977;SDS011;3015;51.390;12.256;2023-03-11T06:13:55;6.65;;;6.00;;
5977;SDS011;3015;51.390;12.256;2023-03-11T06:16:22;7.25;;;6.53;;
5977;SDS011;3015;51.390;12.256;2023-03-11T06:18:48;8.90;;;7.53;;
5977;SDS011;3015;51.390;12.256;2023-03-11T06:21:18;9.70;;;7.20;;
5977;SDS011;3015;51.390;12.256;2023-03-11T06:23:45;9.32;;;8.13;;
5977;SDS011;3015;51.390;12.256;2023-03-11T06:26:11;7.63;;;6.75;;
5977;SDS011;3015;51.390;12.256;2023-03-11T06:28:40;11.07;;;7.47;;
5977;SDS011;3015;51.390;12.256;2023-03-11T06:31:07;11.10;;;8.65;;
5977;SDS011;3015;51.390;12.256;2023-03-11T06:33:34;10.82;;;8.40;;
5977;SDS011;3015;51.390;12.256;2023-03-11T06:36:00;9.00;;;6.53;;
5977;SDS011;3015;51.390;12.256;2023-03-11T06:38:27;7.93;;;6.45;;
5977;SDS011;3015;51.390;12.256;2023-03-11T06:40:52;7.40;;;6.03;;
5977;SDS011;3015;51.390;12.256;2023-03-11T06:43:18;9.57;;;7.50;;
5977;SDS011;3015;51.390;12.256;2023-03-11T06:45:45;11.13;;;7.65;;
5977;SDS011;3015;51.390;12.256;2023-03-11T06:48:11;10.00;;;7.23;;
5977;SDS011;3015;51.390;12.256;2023-03-11T06:50:37;6.80;;;5.80;;
5977;SDS011;3015;51.390;12.256;2023-03-11T06:53:02;7.37;;;6.57;;
5977;SDS011;3015;51.390;12.256;2023-03-11T06:55:31;9.15;;;6.85;;
5977;SDS011;3015;51.390;12.256;2023-03-11T06:57:58;9.02;;;7.53;;
5977;SDS011;3015;51.390;12.256;2023-03-11T07:00:23;10.90;;;6.63;;
5977;SDS011;3015;51.390;12.256;2023-03-11T07:02:49;7.43;;;5.90;;
5977;SDS011;3015;51.390;12.256;2023-03-11T07:05:15;7.20;;;5.77;;
5977;SDS011;3015;51.390;12.256;2023-03-11T07:07:41;8.60;;;6.43;;
5977;SDS011;3015;51.390;12.256;2023-03-11T07:10:07;7.77;;;6.07;;
5977;SDS011;3015;51.390;12.256;2023-03-11T07:12:33;12.10;;;7.05;;
5977;SDS011;3015;51.390;12.256;2023-03-11T07:14:58;8.73;;;7.27;;
5977;SDS011;3015;51.390;12.256;2023-03-11T07:17:25;8.38;;;6.93;;
5977;SDS011;3015;51.390;12.256;2023-03-11T07:19:51;7.75;;;6.95;;
5977;SDS011;3015;51.390;12.256;2023-03-11T07:22:17;10.68;;;8.20;;
5977;SDS011;3015;51.390;12.256;2023-03-11T07:24:47;10.20;;;7.37;;
5977;SDS011;3015;51.390;12.256;2023-03-11T07:27:13;6.72;;;5.82;;
5977;SDS011;3015;51.390;12.256;2023-03-11T07:29:39;10.07;;;7.60;;
5977;SDS011;3015;51.390;12.256;2023-03-11T07:32:07;8.37;;;7.50;;
5977;SDS011;3015;51.390;12.256;2023-03-11T07:34:34;7.00;;;6.20;;
5977;SDS011;3015;51.390;12.256;2023-03-11T07:36:59;10.00;;;8.67;;
5977;SDS011;3015;51.390;12.256;2023-03-11T07:39:25;15.07;;;9.67;;
5977;SDS011;3015;51.390;12.256;2023-03-11T07:41:51;13.00;;;9.33;;
5977;SDS011;3015;51.390;12.256;2023-03-11T07:44:17;8.70;;;7.67;;
5977;SDS011;3015;51.390;12.256;2023-03-11T07:46:43;12.17;;;8.73;;
5977;SDS011;3015;51.390;12.256;2023-03-11T07:49:09;10.67;;;7.63;;
5977;SDS011;3015;51.390;12.256;2023-03-11T07:51:35;10.43;;;7.25;;
5977;SDS011;3015;51.390;12.256;2023-03-11T07:54:02;8.38;;;7.40;;
5977;SDS011;3015;51.390;12.256;2023-03-11T07:56:30;13.00;;;8.43;;
5977;SDS011;3015;51.390;12.256;2023-03-11T07:58:58;11.02;;;7.97;;
5977;SDS011;3015;51.390;12.256;2023-03-11T08:01:26;7.22;;;6.53;;
5977;SDS011;3015;51.390;12.256;2023-03-11T08:03:55;8.77;;;6.82;;
5977;SDS011;3015;51.390;12.256;2023-03-11T08:06:26;9.57;;;8.55;;
5977;SDS011;3015;51.390;12.256;2023-03-11T08:08:55;9.27;;;8.35;;
5977;SDS011;3015;51.390;12.256;2023-03-11T08:11:22;9.98;;;7.75;;
5977;SDS011;3015;51.390;12.256;2023-03-11T08:13:48;11.23;;;8.95;;
5977;SDS011;3015;51.390;12.256;2023-03-11T08:16:16;9.10;;;7.28;;
5977;SDS011;3015;51.390;12.256;2023-03-11T08:18:43;10.35;;;9.23;;
5977;SDS011;3015;51.390;12.256;2023-03-11T08:21:13;7.75;;;6.50;;
5977;SDS011;3015;51.390;12.256;2023-03-11T08:23:41;8.25;;;6.85;;
5977;SDS011;3015;51.390;12.256;2023-03-11T08:26:08;7.28;;;5.25;;
5977;SDS011;3015;51.390;12.256;2023-03-11T08:28:37;4.68;;;4.25;;
5977;SDS011;3015;51.390;12.256;2023-03-11T08:31:10;7.88;;;7.18;;
5977;SDS011;3015;51.390;12.256;2023-03-11T08:33:40;6.50;;;5.88;;
5977;SDS011;3015;51.390;12.256;2023-03-11T08:36:07;7.63;;;6.88;;
5977;SDS011;3015;51.390;12.256;2023-03-11T08:38:32;11.00;;;6.50;;
5977;SDS011;3015;51.390;12.256;2023-03-11T08:40:58;11.70;;;6.33;;
5977;SDS011;3015;51.390;12.256;2023-03-11T08:43:25;10.07;;;6.93;;
5977;SDS011;3015;51.390;12.256;2023-03-11T08:45:50;7.57;;;5.40;;
5977;SDS011;3015;51.390;12.256;2023-03-11T08:48:16;4.97;;;4.47;;
5977;SDS011;3015;51.390;12.256;2023-03-11T08:50:42;7.47;;;6.07;;
5977;SDS011;3015;51.390;12.256;2023-03-11T08:53:08;6.40;;;5.00;;
5977;SDS011;3015;51.390;12.256;2023-03-11T08:55:33;7.50;;;6.90;;
5977;SDS011;3015;51.390;12.256;2023-03-11T08:57:59;6.93;;;6.23;;
5977;SDS011;3015;51.390;12.256;2023-03-11T09:00:25;7.35;;;6.00;;
5977;SDS011;3015;51.390;12.256;2023-03-11T09:02:51;6.20;;;5.37;;
5977;SDS011;3015;51.390;12.256;2023-03-11T09:05:17;8.43;;;6.90;;
5977;SDS011;3015;51.390;12.256;2023-03-11T09:07:43;6.80;;;6.20;;
5977;SDS011;3015;51.390;12.256;2023-03-11T09:10:10;8.97;;;7.83;;
5977;SDS011;3015;51.390;12.256;2023-03-11T09:12:38;8.00;;;6.88;;
5977;SDS011;3015;51.390;12.256;2023-03-11T09:15:04;7.27;;;6.43;;
5977;SDS011;3015;51.390;12.256;2023-03-11T09:17:30;8.25;;;7.47;;
5977;SDS011;3015;51.390;12.256;2023-03-11T09:19:56;17.73;;;7.50;;
5977;SDS011;3015;51.390;12.256;2023-03-11T09:22:21;5.37;;;4.83;;
5977;SDS011;3015;51.390;12.256;2023-03-11T09:24:47;7.77;;;5.90;;
5977;SDS011;3015;51.390;12.256;2023-03-11T09:27:13;6.50;;;5.90;;
5977;SDS011;3015;51.390;12.256;2023-03-11T09:29:39;7.95;;;7.00;;
5977;SDS011;3015;51.390;12.256;2023-03-11T09:32:05;7.15;;;6.00;;
5977;SDS011;3015;51.390;12.256;2023-03-11T09:34:31;6.67;;;6.07;;
5977;SDS011;3015;51.390;12.256;2023-03-11T09:36:57;8.60;;;6.55;;
5977;SDS011;3015;51.390;12.256;2023-03-11T09:39:24;12.00;;;6.90;;
5977;SDS011;3015;51.390;12.256;2023-03-11T09:44:26;9.70;;;6.15;;
5977;SDS011;3015;51.390;12.256;2023-03-11T09:49:59;8.77;;;7.22;;
5977;SDS011;3015;51.390;12.256;2023-03-11T09:52:32;5.75;;;5.25;;
5977;SDS011;3015;51.390;12.256;2023-03-11T09:58:27;6.03;;;5.43;;
5977;SDS011;3015;51.390;12.256;2023-03-11T10:01:09;5.85;;;5.25;;
5977;SDS011;3015;51.390;12.256;2023-03-11T10:03:40;5.20;;;4.72;;
5977;SDS011;3015;51.390;12.256;2023-03-11T10:08:33;6.10;;;4.83;;
5977;SDS011;3015;51.390;12.256;2023-03-11T10:11:11;6.35;;;5.53;;
5977;SDS011;3015;51.390;12.256;2023-03-11T10:13:51;5.45;;;4.97;;
5977;SDS011;3015;51.390;12.256;2023-03-11T10:16:39;6.53;;;5.00;;
5977;SDS011;3015;51.390;12.256;2023-03-11T10:19:17;6.57;;;6.07;;
5977;SDS011;3015;51.390;12.256;2023-03-11T10:27:44;8.90;;;5.53;;
5977;SDS011;3015;51.390;12.256;2023-03-11T10:33:16;6.90;;;5.13;;
5977;SDS011;3015;51.390;12.256;2023-03-11T10:35:48;5.28;;;4.78;;
5977;SDS011;3015;51.390;12.256;2023-03-11T10:38:18;6.20;;;5.53;;
5977;SDS011;3015;51.390;12.256;2023-03-11T10:41:11;8.63;;;6.15;;
5977;SDS011;3015;51.390;12.256;2023-03-11T10:43:47;7.03;;;5.85;;
5977;SDS011;3015;51.390;12.256;2023-03-11T10:46:19;6.88;;;5.65;;
5977;SDS011;3015;51.390;12.256;2023-03-11T10:48:49;6.88;;;6.28;;
5977;SDS011;3015;51.390;12.256;2023-03-11T10:51:16;7.83;;;7.13;;
5977;SDS011;3015;51.390;12.256;2023-03-11T10:54:00;7.43;;;6.75;;
5977;SDS011;3015;51.390;12.256;2023-03-11T10:56:29;8.88;;;6.20;;
5977;SDS011;3015;51.390;12.256;2023-03-11T10:58:55;7.90;;;6.70;;
5977;SDS011;3015;51.390;12.256;2023-03-11T11:01:21;6.97;;;6.38;;
5977;SDS011;3015;51.390;12.256;2023-03-11T11:03:49;7.07;;;6.50;;
5977;SDS011;3015;51.390;12.256;2023-03-11T11:06:26;8.45;;;7.00;;
5977;SDS011;3015;51.390;12.256;2023-03-11T11:09:41;9.55;;;7.85;;
5977;SDS011;3015;51.390;12.256;2023-03-11T11:12:05;8.25;;;7.10;;
5977;SDS011;3015;51.390;12.256;2023-03-11T11:14:47;6.63;;;6.03;;
5977;SDS011;3015;51.390;12.256;2023-03-11T11:17:23;7.53;;;6.82;;
5977;SDS011;3015;51.390;12.256;2023-03-11T11:19:54;6.13;;;5.60;;
5977;SDS011;3015;51.390;12.256;2023-03-11T11:22:22;6.38;;;5.65;;
5977;SDS011;3015;51.390;12.256;2023-03-11T11:24:50;8.45;;;6.03;;
5977;SDS011;3015;51.390;12.256;2023-03-11T11:27:23;7.30;;;6.63;;
5977;SDS011;3015;51.390;12.256;2023-03-11T11:30:11;6.63;;;5.30;;
5977;SDS011;3015;51.390;12.256;2023-03-11T11:32:40;6.80;;;6.20;;
5977;SDS011;3015;51.390;12.256;2023-03-11T11:37:36;8.40;;;7.50;;
5977;SDS011;3015;51.390;12.256;2023-03-11T11:40:06;9.07;;;8.27;;
5977;SDS011;3015;51.390;12.256;2023-03-11T11:50:51;7.10;;;6.00;;
5977;SDS011;3015;51.390;12.256;2023-03-11T11:53:29;7.78;;;6.97;;
5977;SDS011;3015;51.390;12.256;2023-03-11T11:56:01;8.88;;;6.85;;
5977;SDS011;3015;51.390;12.256;2023-03-11T11:58:27;8.80;;;7.82;;
5977;SDS011;3015;51.390;12.256;2023-03-11T12:05:59;12.13;;;7.70;;
5977;SDS011;3015;51.390;12.256;2023-03-11T12:11:07;6.70;;;5.22;;
5977;SDS011;3015;51.390;12.256;2023-03-11T12:16:25;6.57;;;5.97;;
5977;SDS011;3015;51.390;12.256;2023-03-11T12:18:57;13.18;;;6.68;;
5977;SDS011;3015;51.390;12.256;2023-03-11T12:26:57;7.75;;;6.25;;
5977;SDS011;3015;51.390;12.256;2023-03-11T12:29:32;6.28;;;5.78;;
5977;SDS011;3015;51.390;12.256;2023-03-11T12:32:03;6.70;;;6.07;;
5977;SDS011;3015;51.390;12.256;2023-03-11T12:34:30;5.50;;;4.75;;
5977;SDS011;3015;51.390;12.256;2023-03-11T12:36:59;6.90;;;6.22;;
5977;SDS011;3015;51.390;12.256;2023-03-11T12:39:31;7.38;;;6.68;;
5977;SDS011;3015;51.390;12.256;2023-03-11T12:44:40;8.20;;;7.43;;
5977;SDS011;3015;51.390;12.256;2023-03-11T12:49:34;9.37;;;8.47;;
5977;SDS011;3015;51.390;12.256;2023-03-11T12:54:40;8.35;;;7.65;;
5977;SDS011;3015;51.390;12.256;2023-03-11T13:05:09;6.97;;;6.28;;
5977;SDS011;3015;51.390;12.256;2023-03-11T13:10:44;7.28;;;6.50;;
5977;SDS011;3015;51.390;12.256;2023-03-11T13:13:21;7.10;;;6.45;;
5977;SDS011;3015;51.390;12.256;2023-03-11T13:18:37;7.20;;;6.00;;
5977;SDS011;3015;51.390;12.256;2023-03-11T13:21:05;6.50;;;5.80;;
5977;SDS011;3015;51.390;12.256;2023-03-11T13:41:11;6.50;;;6.00;;
5977;SDS011;3015;51.390;12.256;2023-03-11T13:43:47;6.75;;;6.07;;
5977;SDS011;3015;51.390;12.256;2023-03-11T13:46:30;7.38;;;6.80;;
5977;SDS011;3015;51.390;12.256;2023-03-11T13:49:04;7.65;;;6.43;;
5977;SDS011;3015;51.390;12.256;2023-03-11T13:51:37;5.72;;;5.22;;
5977;SDS011;3015;51.390;12.256;2023-03-11T13:57:19;4.90;;;4.50;;
5977;SDS011;3015;51.390;12.256;2023-03-11T13:59:54;5.38;;;4.93;;
5977;SDS011;3015;51.390;12.256;2023-03-11T14:02:24;5.65;;;5.22;;
5977;SDS011;3015;51.390;12.256;2023-03-11T14:05:06;4.28;;;3.88;;
5977;SDS011;3015;51.390;12.256;2023-03-11T14:07:40;8.45;;;5.75;;
5977;SDS011;3015;51.390;12.256;2023-03-11T14:10:25;6.27;;;5.77;;
5977;SDS011;3015;51.390;12.256;2023-03-11T14:13:03;5.70;;;5.30;;
5977;SDS011;3015;51.390;12.256;2023-03-11T14:15:36;5.90;;;5.50;;
5977;SDS011;3015;51.390;12.256;2023-03-11T14:18:34;5.25;;;4.85;;
5977;SDS011;3015;51.390;12.256;2023-03-11T14:21:03;5.70;;;5.18;;
5977;SDS011;3015;51.390;12.256;2023-03-11T14:23:38;4.57;;;4.18;;
5977;SDS011;3015;51.390;12.256;2023-03-11T14:26:16;4.40;;;4.03;;
5977;SDS011;3015;51.390;12.256;2023-03-11T14:28:54;4.93;;;4.63;;
5977;SDS011;3015;51.390;12.256;2023-03-11T14:31:36;5.18;;;4.68;;
5977;SDS011;3015;51.390;12.256;2023-03-11T14:34:10;4.28;;;4.03;;
5977;SDS011;3015;51.390;12.256;2023-03-11T14:36:50;4.30;;;4.00;;
5977;SDS011;3015;51.390;12.256;2023-03-11T14:41:48;3.35;;;3.25;;
5977;SDS011;3015;51.390;12.256;2023-03-11T14:44:15;4.10;;;3.80;;
5977;SDS011;3015;51.390;12.256;2023-03-11T14:46:42;6.93;;;5.18;;
5977;SDS011;3015;51.390;12.256;2023-03-11T14:49:11;5.20;;;4.70;;
5977;SDS011;3015;51.390;12.256;2023-03-11T14:51:41;4.40;;;4.10;;
5977;SDS011;3015;51.390;12.256;2023-03-11T14:54:10;5.13;;;3.35;;
5977;SDS011;3015;51.390;12.256;2023-03-11T14:56:39;3.47;;;3.28;;
5977;SDS011;3015;51.390;12.256;2023-03-11T14:59:12;3.67;;;3.38;;
5977;SDS011;3015;51.390;12.256;2023-03-11T15:01:53;4.07;;;3.70;;
5977;SDS011;3015;51.390;12.256;2023-03-11T15:04:29;4.60;;;3.60;;
5977;SDS011;3015;51.390;12.256;2023-03-11T15:06:59;2.88;;;2.78;;
5977;SDS011;3015;51.390;12.256;2023-03-11T15:09:28;4.75;;;4.43;;
5977;SDS011;3015;51.390;12.256;2023-03-11T15:11:55;3.90;;;3.60;;
5977;SDS011;3015;51.390;12.256;2023-03-11T15:14:36;4.50;;;3.30;;
5977;SDS011;3015;51.390;12.256;2023-03-11T15:17:15;6.85;;;3.60;;
5977;SDS011;3015;51.390;12.256;2023-03-11T15:19:41;3.83;;;3.63;;
5977;SDS011;3015;51.390;12.256;2023-03-11T15:24:54;4.20;;;3.90;;
5977;SDS011;3015;51.390;12.256;2023-03-11T15:27:29;4.00;;;3.80;;
5977;SDS011;3015;51.390;12.256;2023-03-11T15:30:00;4.38;;;3.78;;
5977;SDS011;3015;51.390;12.256;2023-03-11T15:37:34;3.40;;;3.20;;
5977;SDS011;3015;51.390;12.256;2023-03-11T15:42:47;7.22;;;4.65;;
5977;SDS011;3015;51.390;12.256;2023-03-11T15:45:17;4.93;;;4.40;;
5977;SDS011;3015;51.390;12.256;2023-03-11T15:47:45;3.50;;;3.30;;
5977;SDS011;3015;51.390;12.256;2023-03-11T15:52:52;4.10;;;3.75;;
5977;SDS011;3015;51.390;12.256;2023-03-11T15:55:19;3.67;;;3.40;;
5977;SDS011;3015;51.390;12.256;2023-03-11T15:57:45;3.70;;;3.40;;
5977;SDS011;3015;51.390;12.256;2023-03-11T16:00:19;4.30;;;4.00;;
5977;SDS011;3015;51.390;12.256;2023-03-11T16:02:50;4.40;;;3.85;;
5977;SDS011;3015;51.390;12.256;2023-03-11T16:05:17;4.45;;;3.53;;
5977;SDS011;3015;51.390;12.256;2023-03-11T16:07:47;3.42;;;3.22;;
5977;SDS011;3015;51.390;12.256;2023-03-11T16:10:13;4.07;;;3.70;;
5977;SDS011;3015;51.390;12.256;2023-03-11T16:12:41;3.78;;;3.45;;
5977;SDS011;3015;51.390;12.256;2023-03-11T16:15:40;3.60;;;3.30;;
5977;SDS011;3015;51.390;12.256;2023-03-11T16:18:02;3.78;;;3.03;;
5977;SDS011;3015;51.390;12.256;2023-03-11T16:20:30;3.50;;;3.20;;
5977;SDS011;3015;51.390;12.256;2023-03-11T16:23:19;3.63;;;3.42;;
5977;SDS011;3015;51.390;12.256;2023-03-11T16:25:49;4.50;;;3.75;;
5977;SDS011;3015;51.390;12.256;2023-03-11T16:28:26;3.58;;;3.38;;
5977;SDS011;3015;51.390;12.256;2023-03-11T16:30:52;4.70;;;4.30;;
5977;SDS011;3015;51.390;12.256;2023-03-11T16:33:17;17.90;;;11.63;;
5977;SDS011;3015;51.390;12.256;2023-03-11T16:35:43;15.23;;;11.37;;
5977;SDS011;3015;51.390;12.256;2023-03-11T16:38:08;15.83;;;8.23;;
5977;SDS011;3015;51.390;12.256;2023-03-11T16:40:34;10.00;;;8.00;;
5977;SDS011;3015;51.390;12.256;2023-03-11T16:43:01;13.10;;;10.17;;
5977;SDS011;3015;51.390;12.256;2023-03-11T16:45:34;8.38;;;7.57;;
5977;SDS011;3015;51.390;12.256;2023-03-11T16:48:00;4.13;;;3.80;;
5977;SDS011;3015;51.390;12.256;2023-03-11T16:50:26;4.63;;;4.32;;
5977;SDS011;3015;51.390;12.256;2023-03-11T16:52:52;3.90;;;3.57;;
5977;SDS011;3015;51.390;12.256;2023-03-11T16:55:19;8.80;;;2.97;;
5977;SDS011;3015;51.390;12.256;2023-03-11T16:57:45;3.30;;;3.10;;
5977;SDS011;3015;51.390;12.256;2023-03-11T17:00:11;4.30;;;3.30;;
5977;SDS011;3015;51.390;12.256;2023-03-11T17:02:38;3.53;;;3.33;;